createdAt,value
2022-11-06T00:00:37.637Z,13.13
2022-11-06T00:27:51.703Z,13.43
2022-11-06T00:30:20.541Z,15.43
2022-11-06T00:32:48.177Z,18.13
2022-11-06T00:35:14.937Z,16.20
2022-11-06T00:37:41.793Z,18.17
2022-11-06T00:40:09.615Z,16.17
2022-11-06T00:42:39.282Z,15.95
2022-11-06T00:45:07.056Z,13.45
2022-11-06T00:47:36.569Z,14.68
2022-11-06T00:50:04.174Z,12.18
2022-11-06T00:52:30.965Z,14.48
2022-11-06T00:54:57.860Z,16.88
2022-11-06T00:57:24.974Z,16.42
2022-11-06T00:59:51.826Z,11.98
2022-11-06T01:02:19.638Z,13.23
2022-11-06T01:04:47.307Z,11.82
2022-11-06T01:07:16.825Z,16.30
2022-11-06T01:09:43.659Z,13.52
2022-11-06T01:12:13.400Z,13.50
2022-11-06T01:14:43.024Z,14.65
2022-11-06T01:17:10.417Z,14.18
2022-11-06T01:19:37.400Z,14.93
2022-11-06T01:22:04.677Z,17.60
2022-11-06T01:24:31.741Z,12.35
2022-11-06T01:27:25.518Z,10.98
2022-11-06T01:29:45.216Z,12.50
2022-11-06T01:32:12.689Z,13.38
2022-11-06T01:34:39.574Z,14.60
2022-11-06T01:37:09.180Z,13.60
2022-11-06T01:39:39.776Z,11.48
2022-11-06T01:42:08.653Z,12.98
2022-11-06T01:44:40.980Z,12.20
2022-11-06T01:47:28.949Z,12.75
2022-11-06T01:50:05.868Z,12.55
2022-11-06T01:52:38.531Z,10.98
2022-11-06T01:55:38.416Z,12.77
2022-11-06T01:58:12.429Z,11.25
2022-11-06T02:03:13.765Z,11.80
2022-11-06T02:05:41.731Z,14.23
2022-11-06T02:08:16.056Z,11.43
2022-11-06T02:10:44.851Z,9.65
2022-11-06T02:13:46.051Z,11.40
2022-11-06T02:16:30.045Z,9.32
2022-11-06T02:19:49.525Z,11.98
2022-11-06T02:22:40.047Z,10.10
2022-11-06T02:25:36.829Z,9.05
2022-11-06T02:28:53.245Z,8.27
2022-11-06T02:31:29.856Z,9.45
2022-11-06T02:34:09.719Z,9.57
2022-11-06T02:36:55.067Z,9.75
2022-11-06T02:39:28.300Z,8.85
2022-11-06T02:42:00.562Z,9.57
2022-11-06T02:44:36.348Z,8.10
2022-11-06T02:47:11.423Z,8.10
2022-11-06T02:49:59.655Z,8.60
2022-11-06T02:52:37.778Z,7.63
2022-11-06T02:55:17.867Z,8.35
2022-11-06T02:57:54.687Z,17.65
2022-11-06T03:00:23.756Z,7.40
2022-11-06T03:03:15.194Z,7.53
2022-11-06T03:06:13.300Z,9.90
2022-11-06T03:08:49.971Z,9.02
2022-11-06T03:11:40.342Z,8.35
2022-11-06T03:14:36.127Z,7.90
2022-11-06T03:17:34.291Z,7.90
2022-11-06T03:20:32.837Z,11.95
2022-11-06T03:23:22.978Z,8.00
2022-11-06T03:26:22.284Z,6.72
2022-11-06T03:28:55.432Z,6.60
2022-11-06T03:31:43.246Z,9.25
2022-11-06T03:34:23.971Z,6.40
2022-11-06T03:37:09.094Z,9.18
2022-11-06T03:39:50.367Z,6.78
2022-11-06T03:42:27.768Z,8.30
2022-11-06T03:45:07.517Z,7.55
2022-11-06T03:47:45.893Z,10.55
2022-11-06T03:50:43.010Z,8.32
2022-11-06T03:53:26.298Z,7.75
2022-11-06T03:56:05.348Z,7.53
2022-11-06T03:58:40.910Z,7.15
2022-11-06T04:01:13.472Z,6.97
2022-11-06T04:03:59.603Z,7.03
2022-11-06T04:06:50.983Z,8.70
2022-11-06T04:09:44.539Z,8.02
2022-11-06T04:12:37.927Z,7.95
2022-11-06T04:15:10.782Z,6.53
2022-11-06T04:17:40.796Z,7.00
2022-11-06T04:20:38.680Z,7.70
2022-11-06T04:23:31.546Z,8.30
2022-11-06T04:26:37.270Z,7.38
2022-11-06T04:29:40.228Z,7.88
2022-11-06T04:32:48.713Z,8.25
2022-11-06T04:35:48.918Z,9.15
2022-11-06T04:38:30.538Z,7.65
2022-11-06T04:41:34.339Z,9.35
2022-11-06T04:44:39.579Z,7.80
2022-11-06T04:47:18.836Z,11.38
2022-11-06T04:49:49.130Z,14.48
2022-11-06T04:52:25.241Z,8.57
2022-11-06T04:54:56.168Z,8.80
2022-11-06T04:57:27.419Z,9.45
2022-11-06T04:59:57.118Z,9.75
2022-11-06T05:02:24.727Z,9.02
2022-11-06T05:04:51.719Z,12.68
2022-11-06T05:07:18.434Z,9.25
2022-11-06T05:09:45.754Z,10.02
2022-11-06T05:12:15.031Z,12.38
2022-11-06T05:14:41.608Z,11.70
2022-11-06T05:17:08.339Z,10.75
2022-11-06T05:19:35.230Z,10.15
2022-11-06T05:22:20.565Z,13.05
2022-11-06T05:24:47.539Z,10.73
2022-11-06T05:27:14.759Z,13.75
2022-11-06T05:29:41.479Z,11.88
2022-11-06T05:32:11.336Z,12.07
2022-11-06T05:34:38.430Z,10.93
2022-11-06T05:37:05.137Z,11.07
2022-11-06T05:39:39.041Z,13.50
2022-11-06T05:42:10.967Z,18.90
2022-11-06T05:44:37.851Z,13.85
2022-11-06T05:47:10.162Z,11.60
2022-11-06T05:49:36.750Z,11.82
2022-11-06T05:52:03.727Z,11.70
2022-11-06T05:54:30.373Z,15.25
2022-11-06T05:57:00.071Z,11.10
2022-11-06T05:59:28.890Z,14.57
2022-11-06T06:01:59.500Z,14.57
2022-11-06T06:04:26.327Z,16.55
2022-11-06T06:06:53.164Z,16.30
2022-11-06T06:09:19.861Z,17.42
2022-11-06T08:08:29.354Z,16.05
2022-11-06T08:10:56.364Z,12.40
2022-11-06T09:07:43.639Z,14.77
2022-11-06T09:10:10.497Z,14.43
2022-11-06T10:12:58.272Z,15.07
2022-11-06T13:29:55.608Z,4.57
2022-11-06T14:06:43.757Z,5.97
2022-11-06T14:09:24.658Z,5.03
2022-11-06T14:12:03.257Z,6.25
2022-11-06T14:14:34.712Z,3.92
2022-11-06T14:17:16.420Z,7.28
2022-11-06T14:20:33.843Z,8.02
2022-11-06T14:23:28.774Z,4.47
2022-11-06T14:28:44.416Z,6.68
2022-11-06T14:32:10.527Z,4.68
2022-11-06T14:34:42.282Z,7.28
2022-11-06T14:37:47.029Z,6.55
2022-11-06T14:40:14.548Z,4.45
2022-11-06T14:42:47.861Z,6.93
2022-11-06T14:45:22.924Z,5.23
2022-11-06T14:47:56.801Z,5.18
2022-11-06T14:50:41.754Z,4.82
2022-11-06T14:53:35.182Z,6.32
2022-11-06T14:56:12.332Z,12.93
2022-11-06T14:58:51.654Z,28.80
2022-11-06T15:01:32.192Z,7.85
2022-11-06T15:04:17.721Z,6.18
2022-11-06T15:06:51.173Z,5.40
2022-11-06T15:09:23.911Z,5.75
2022-11-06T15:12:05.701Z,5.25
2022-11-06T15:14:32.394Z,5.40
2022-11-06T16:16:56.616Z,8.63
2022-11-06T16:51:34.059Z,6.00
2022-11-06T17:19:42.999Z,17.20
2022-11-06T17:38:19.293Z,4.55
2022-11-06T18:16:28.823Z,4.90
2022-11-06T18:35:37.329Z,5.05
2022-11-06T19:02:19.563Z,4.55
2022-11-06T19:26:41.514Z,3.90
2022-11-06T20:07:04.554Z,4.40
2022-11-06T20:47:25.140Z,4.25
2022-11-06T20:52:36.158Z,4.00
2022-11-06T20:55:03.736Z,5.30
2022-11-06T20:57:30.418Z,4.60
2022-11-06T21:00:00.198Z,4.38
2022-11-06T21:02:26.929Z,5.65
2022-11-06T21:04:53.675Z,4.35
2022-11-06T21:07:20.357Z,4.82
2022-11-06T21:09:47.027Z,4.82
2022-11-06T21:12:16.267Z,4.78
2022-11-06T21:14:48.984Z,4.43
2022-11-06T21:17:15.696Z,4.20
2022-11-06T21:19:42.331Z,4.00
2022-11-06T21:22:11.872Z,4.50
2022-11-06T21:24:41.287Z,4.93
2022-11-06T21:27:11.413Z,5.20
2022-11-06T21:29:38.158Z,3.92
2022-11-06T21:32:05.271Z,4.30
2022-11-06T21:34:31.885Z,5.18
2022-11-06T21:37:02.552Z,4.45
2022-11-06T21:39:34.724Z,4.07
2022-11-06T21:42:04.552Z,4.38
2022-11-06T21:44:31.560Z,5.70
2022-11-06T21:46:58.241Z,4.60
2022-11-06T21:49:24.850Z,5.35
2022-11-06T21:51:51.698Z,4.30
2022-11-06T21:54:37.169Z,5.53
2022-11-06T21:57:07.669Z,5.65
2022-11-06T21:59:41.318Z,4.85
2022-11-06T22:02:10.200Z,4.30
2022-11-06T22:04:37.193Z,4.75
2022-11-06T22:07:04.125Z,6.07
2022-11-06T22:09:31.040Z,4.68
2022-11-06T22:11:59.488Z,4.65
2022-11-06T22:14:27.476Z,6.45
2022-11-06T22:16:54.210Z,5.22
2022-11-06T22:19:20.912Z,5.72
2022-11-06T22:21:47.550Z,5.32
2022-11-06T22:24:16.473Z,4.88
2022-11-06T22:26:43.302Z,4.63
2022-11-06T22:29:14.609Z,4.93
2022-11-06T22:31:41.604Z,5.55
2022-11-06T22:34:11.896Z,7.45
2022-11-06T22:36:40.461Z,6.10
2022-11-06T22:39:12.433Z,5.88
2022-11-06T22:41:41.236Z,5.28
2022-11-06T22:44:13.749Z,5.35
2022-11-06T22:46:40.647Z,5.35
2022-11-06T22:49:14.063Z,5.18
2022-11-06T22:51:40.785Z,4.83
2022-11-06T22:54:07.879Z,5.55
2022-11-06T22:56:36.409Z,7.32
2022-11-06T22:59:08.736Z,7.05
2022-11-06T23:01:47.081Z,5.47
2022-11-06T23:04:15.972Z,6.70
2022-11-06T23:06:45.497Z,7.03
2022-11-06T23:09:13.842Z,5.43
2022-11-06T23:11:40.573Z,5.28
2022-11-06T23:14:10.266Z,7.10
2022-11-06T23:16:59.308Z,5.25
2022-11-06T23:19:29.714Z,5.10
2022-11-06T23:22:19.626Z,5.50
2022-11-06T23:24:46.576Z,5.60
2022-11-06T23:27:13.518Z,5.03
2022-11-06T23:29:40.495Z,5.38
2022-11-06T23:32:10.019Z,5.18
2022-11-06T23:34:39.684Z,4.60
2022-11-06T23:37:08.408Z,5.65
2022-11-06T23:39:37.582Z,5.18
2022-11-06T23:42:04.559Z,4.88
2022-11-06T23:44:49.616Z,4.70
2022-11-06T23:47:16.191Z,5.00
2022-11-06T23:49:42.829Z,5.05
2022-11-06T23:52:12.416Z,5.53
2022-11-06T23:54:39.073Z,5.32
2022-11-06T23:57:14.479Z,5.85
2022-11-06T23:59:41.894Z,5.68
